Time;durP1;ratioP1;P1;durP2;ratioP2;P2;SDS_P1;SDS_P2;PMS_P1;PMS_P2;Temp;Humidity;BMP_temperature;BMP_pressure;BME280_temperature;BME280_humidity;BME280_pressure;Samples;Min_cycle;Max_cycle;Signal;HPM_P1;HPM_P2
2023/12/28 00:00:38;;;;;;;;;;;;;;;5.92;100.00;100598.25;5051751;28;19970;-79
2023/12/28 00:03:03;;;;;;;;;;;;;;;6.09;100.00;100604.13;5051705;28;19923;-76
2023/12/28 00:05:29;;;;;;;;;;;;;;;5.56;100.00;100641.88;5049802;28;20370;-77
2023/12/28 00:07:57;;;;;;;;;;;;;;;5.93;100.00;100652.91;5069188;28;19931;-77
2023/12/28 00:10:26;;;;;;;;;;;;;;;5.92;100.00;100662.13;5051208;28;20620;-77
2023/12/28 00:12:52;;;;;;;;;;;;;;;5.95;100.00;100677.31;5069108;28;19923;-76
2023/12/28 00:15:17;;;;;;;;;;;;;;;5.95;100.00;100696.63;5069350;28;19916;-76
2023/12/28 00:17:42;;;;;;;;;;;;;;;5.66;100.00;100686.44;5051539;28;19916;-75
2023/12/28 00:20:08;;;;;;;;;;;;;;;5.98;100.00;100692.44;5049936;28;19912;-76
2023/12/28 00:22:33;;;;;;;;;;;;;;;5.48;100.00;100713.25;5068369;28;20398;-75
2023/12/28 00:24:58;;;;;;;;;;;;;;;5.90;100.00;100711.75;5068687;28;20432;-76
2023/12/28 00:27:24;;;;;;;;;;;;;;;5.87;100.00;100733.63;5051776;28;19920;-76
2023/12/28 00:29:49;;;;;;;;;;;;;;;5.97;100.00;100746.28;5068974;28;19976;-84
2023/12/28 00:32:14;;;;;;;;;;;;;;;5.72;100.00;100764.66;5069216;28;20379;-77
2023/12/28 00:34:39;;;;;;;;;;;;;;;5.70;100.00;100756.25;5049561;28;19963;-82
2023/12/28 00:37:05;;;;;;;;;;;;;;;6.05;100.00;100746.28;5050902;28;19916;-77
2023/12/28 00:39:30;;;;;;;;;;;;;;;5.81;100.00;100757.13;5068775;28;19951;-77
2023/12/28 00:41:55;;;;;;;;;;;;;;;5.76;100.00;100773.06;5051410;28;19945;-80
2023/12/28 00:44:20;;;;;;;;;;;;;;;5.95;100.00;100783.28;5054745;28;19912;-77
2023/12/28 00:46:46;;;;;;;;;;;;;;;6.05;100.00;100782.47;5072542;28;19924;-76
2023/12/28 00:49:11;;;;;;;;;;;;;;;5.81;100.00;100789.06;5071978;28;20386;-77
2023/12/28 00:51:36;;;;;;;;;;;;;;;6.04;100.00;100787.53;5055423;28;19916;-77
2023/12/28 00:54:02;;;;;;;;;;;;;;;5.83;100.00;100789.91;5053367;28;20068;-78
2023/12/28 00:56:27;;;;;;;;;;;;;;;5.65;100.00;100804.94;5072797;28;20302;-76
2023/12/28 00:58:52;;;;;;;;;;;;;;;5.73;100.00;100805.84;5054583;28;20405;-76
2023/12/28 01:01:18;;;;;;;;;;;;;;;5.88;100.00;100811.00;5054533;28;19924;-77
2023/12/28 01:03:43;;;;;;;;;;;;;;;5.95;100.00;100828.69;5055153;28;19916;-77
2023/12/28 01:06:08;;;;;;;;;;;;;;;5.81;100.00;100837.84;5053064;28;20003;-82
2023/12/28 01:08:34;;;;;;;;;;;;;;;5.87;100.00;100860.63;5072629;28;19916;-76
2023/12/28 01:10:59;;;;;;;;;;;;;;;5.72;100.00;100864.69;5054543;28;19920;-77
2023/12/28 01:13:25;;;;;;;;;;;;;;;5.80;100.00;100870.63;5054261;28;20049;-78
2023/12/28 01:15:50;;;;;;;;;;;;;;;5.89;100.00;100885.84;5055317;28;19912;-77
2023/12/28 01:18:15;;;;;;;;;;;;;;;5.82;100.00;100910.16;5072820;28;19921;-77
2023/12/28 01:20:40;;;;;;;;;;;;;;;5.58;100.00;100917.59;5054975;28;19920;-78
2023/12/28 01:23:06;;;;;;;;;;;;;;;5.63;100.00;100935.25;5054639;28;19962;-78
2023/12/28 01:25:31;;;;;;;;;;;;;;;5.41;100.00;100941.81;5054047;28;19920;-78
2023/12/28 01:27:56;;;;;;;;;;;;;;;5.53;100.00;100951.13;5072365;28;20393;-76
2023/12/28 01:30:22;;;;;;;;;;;;;;;5.76;100.00;100958.06;5054026;28;20394;-77
2023/12/28 01:32:47;;;;;;;;;;;;;;;5.20;100.00;100975.25;5054348;28;19916;-76
2023/12/28 01:35:12;;;;;;;;;;;;;;;5.12;100.00;100994.47;5072155;28;19927;-79
2023/12/28 01:37:38;;;;;;;;;;;;;;;5.53;100.00;100994.84;5071563;28;19913;-76
2023/12/28 01:40:03;;;;;;;;;;;;;;;5.21;100.00;100996.22;5054426;28;20272;-76
2023/12/28 01:42:30;;;;;;;;;;;;;;;5.43;100.00;100997.31;5053898;28;19919;-78
2023/12/28 01:44:56;;;;;;;;;;;;;;;4.98;100.00;101003.56;5072140;28;19920;-76
2023/12/28 01:47:21;;;;;;;;;;;;;;;5.06;100.00;101014.56;5071020;28;19920;-76
2023/12/28 01:49:46;;;;;;;;;;;;;;;4.90;100.00;101026.97;5054256;28;19923;-76
2023/12/28 01:52:12;;;;;;;;;;;;;;;4.95;100.00;101043.00;5053618;28;19916;-76
2023/12/28 01:54:37;;;;;;;;;;;;;;;5.08;100.00;101054.91;5069139;28;19953;-77
2023/12/28 01:57:03;;;;;;;;;;;;;;;4.89;100.00;101141.16;5053884;28;20394;-76
2023/12/28 01:59:28;;;;;;;;;;;;;;;4.62;100.00;101170.97;5071575;28;19916;-78
2023/12/28 02:01:54;;;;;;;;;;;;;;;4.26;100.00;101178.78;5053453;28;20019;-77
2023/12/28 02:04:26;;;;;;;;;;;;;;;4.42;100.00;101188.28;5069861;28;20341;-79
2023/12/28 02:06:52;;;;;;;;;;;;;;;4.42;100.00;101208.41;5071295;28;20031;-75
2023/12/28 02:09:18;;;;;;;;;;;;;;;4.04;100.00;101237.94;5069184;28;19964;-77
2023/12/28 02:11:43;;;;;;;;;;;;;;;4.24;100.00;101239.16;5053360;28;19951;-76
2023/12/28 02:14:08;;;;;;;;;;;;;;;4.40;100.00;101245.31;5069850;28;20436;-77
2023/12/28 02:16:36;;;;;;;;;;;;;;;4.68;100.00;101247.47;5071407;28;19916;-76
2023/12/28 02:19:07;;;;;;;;;;;;;;;4.42;100.00;101265.50;5053791;28;19916;-76
2023/12/28 02:21:33;;;;;;;;;;;;;;;4.36;100.00;101258.66;5070863;28;20374;-77
2023/12/28 02:23:59;;;;;;;;;;;;;;;4.17;100.00;101312.84;5053141;28;19920;-76
2023/12/28 02:26:24;;;;;;;;;;;;;;;4.24;100.00;101313.78;5070438;28;19965;-75
2023/12/28 02:28:49;;;;;;;;;;;;;;;3.99;100.00;101299.06;5053075;28;19991;-76
2023/12/28 02:31:28;;;;;;;;;;;;;;;3.72;100.00;101321.13;5052936;28;19916;-77
2023/12/28 02:34:06;;;;;;;;;;;;;;;4.23;100.00;101305.41;5052427;28;19920;-76
2023/12/28 02:36:32;;;;;;;;;;;;;;;4.43;100.00;101305.78;5064202;28;19923;-77
2023/12/28 02:38:59;;;;;;;;;;;;;;;4.56;100.00;101325.31;5052429;28;19912;-76
2023/12/28 02:41:25;;;;;;;;;;;;;;;3.77;100.00;101379.91;5070250;28;19966;-77
2023/12/28 02:43:50;;;;;;;;;;;;;;;3.80;100.00;101382.50;5070757;28;19978;-76
2023/12/28 02:46:16;;;;;;;;;;;;;;;3.95;100.00;101386.19;5052610;28;19920;-78
2023/12/28 02:48:41;;;;;;;;;;;;;;;3.60;100.00;101403.81;5070092;28;19977;-75
2023/12/28 02:51:08;;;;;;;;;;;;;;;3.66;100.00;101394.78;5051792;28;20462;-76
2023/12/28 02:53:33;;;;;;;;;;;;;;;4.15;100.00;101377.41;5067686;28;20007;-76
2023/12/28 02:55:58;;;;;;;;;;;;;;;4.13;100.00;101393.28;5052801;28;20062;-77
2023/12/28 02:58:23;;;;;;;;;;;;;;;4.23;100.00;101396.03;5070054;28;19917;-78
2023/12/28 03:00:49;;;;;;;;;;;;;;;4.12;100.00;101392.41;5048160;28;19916;-78
2023/12/28 03:03:14;;;;;;;;;;;;;;;3.77;100.00;101395.00;5067637;28;20382;-77
2023/12/28 03:05:41;;;;;;;;;;;;;;;3.54;100.00;101316.56;5066811;28;19958;-79
2023/12/28 03:08:06;;;;;;;;;;;;;;;4.09;100.00;101253.13;5050641;28;20402;-78
2023/12/28 03:10:31;;;;;;;;;;;;;;;3.63;100.00;101284.06;5049191;28;20007;-77
2023/12/28 03:12:57;;;;;;;;;;;;;;;3.88;100.00;101270.34;5068191;28;19967;-77
2023/12/28 03:15:23;;;;;;;;;;;;;;;3.91;100.00;101260.31;5050922;28;19920;-81
2023/12/28 03:17:48;;;;;;;;;;;;;;;3.94;100.00;101268.78;5068328;28;20011;-77
2023/12/28 03:20:14;;;;;;;;;;;;;;;3.67;100.00;101278.28;5068372;28;20314;-78
2023/12/28 03:22:40;;;;;;;;;;;;;;;3.69;100.00;101289.22;5049382;28;19920;-76
2023/12/28 03:25:06;;;;;;;;;;;;;;;4.74;100.00;101214.81;5078724;28;19923;-76
2023/12/28 03:27:31;;;;;;;;;;;;;;;3.82;100.00;101281.13;5067686;28;19943;-77
2023/12/28 03:29:56;;;;;;;;;;;;;;;3.99;100.00;101268.88;5066490;28;19916;-76
2023/12/28 03:32:22;;;;;;;;;;;;;;;3.78;100.00;101289.44;5050785;28;20448;-76
2023/12/28 03:34:47;;;;;;;;;;;;;;;3.74;100.00;101290.19;5048892;28;19916;-79
2023/12/28 03:37:12;;;;;;;;;;;;;;;3.67;100.00;101290.84;5068189;28;19916;-75
2023/12/28 03:39:38;;;;;;;;;;;;;;;3.84;100.00;101288.69;5068416;28;20367;-78
2023/12/28 03:42:03;;;;;;;;;;;;;;;3.74;100.00;101296.88;5069093;28;19920;-77
2023/12/28 03:44:28;;;;;;;;;;;;;;;5.40;100.00;101169.56;5049725;28;19969;-79
2023/12/28 03:46:53;;;;;;;;;;;;;;;6.08;100.00;101115.63;5051710;28;19939;-77
2023/12/28 03:49:20;;;;;;;;;;;;;;;4.10;100.00;101274.97;5051179;28;19950;-81
2023/12/28 03:51:45;;;;;;;;;;;;;;;3.91;100.00;101313.16;5051352;28;19916;-77
2023/12/28 03:54:11;;;;;;;;;;;;;;;3.79;100.00;101323.81;5051486;28;19925;-77
2023/12/28 03:56:39;;;;;;;;;;;;;;;3.65;100.00;101337.75;5068370;28;20371;-76
2023/12/28 03:59:04;;;;;;;;;;;;;;;3.74;100.00;101337.97;5069357;28;19916;-80
2023/12/28 04:01:30;;;;;;;;;;;;;;;3.63;100.00;101351.09;5069257;28;20416;-78
2023/12/28 04:03:55;;;;;;;;;;;;;;;3.66;100.00;101348.66;5051680;28;20386;-75
2023/12/28 04:06:20;;;;;;;;;;;;;;;3.37;100.00;101368.94;5068419;28;19982;-76
2023/12/28 04:08:46;;;;;;;;;;;;;;;3.51;100.00;101360.06;5069104;28;19916;-76
2023/12/28 04:11:11;;;;;;;;;;;;;;;3.32;100.00;101393.13;5069871;28;19912;-80
2023/12/28 04:13:36;;;;;;;;;;;;;;;3.44;100.00;101395.94;5050245;28;19924;-77
2023/12/28 04:16:02;;;;;;;;;;;;;;;2.86;100.00;101447.19;5069586;28;20387;-77
2023/12/28 04:18:27;;;;;;;;;;;;;;;2.85;100.00;101455.53;5055052;28;19916;-79
2023/12/28 04:20:52;;;;;;;;;;;;;;;3.05;100.00;101432.63;5055945;28;19931;-77
2023/12/28 04:23:18;;;;;;;;;;;;;;;3.10;100.00;101446.16;5055753;28;19923;-79
2023/12/28 04:25:43;;;;;;;;;;;;;;;3.04;100.00;101460.22;5055353;28;20389;-77
2023/12/28 04:28:08;;;;;;;;;;;;;;;3.29;100.00;101447.47;5055624;28;19920;-76
2023/12/28 04:30:34;;;;;;;;;;;;;;;3.26;100.00;101458.31;5073279;28;19946;-76
2023/12/28 04:33:00;;;;;;;;;;;;;;;3.05;100.00;101467.78;5073363;28;19920;-79
2023/12/28 04:35:25;;;;;;;;;;;;;;;3.20;100.00;101460.66;5071728;28;19917;-76
2023/12/28 04:37:50;;;;;;;;;;;;;;;3.22;100.00;101458.19;5055551;28;19916;-78
2023/12/28 04:40:17;;;;;;;;;;;;;;;3.16;100.00;101460.53;5073219;28;20389;-78
2023/12/28 04:42:42;;;;;;;;;;;;;;;2.97;100.00;101471.75;5055713;28;19919;-76
2023/12/28 04:45:08;;;;;;;;;;;;;;;3.11;100.00;101452.88;5072541;28;19916;-79
2023/12/28 04:47:33;;;;;;;;;;;;;;;3.35;100.00;101437.56;5072469;28;19922;-77
2023/12/28 04:49:58;;;;;;;;;;;;;;;3.14;100.00;101457.13;5072694;28;20006;-77
2023/12/28 04:52:24;;;;;;;;;;;;;;;3.04;100.00;101456.06;5073016;28;19912;-77
2023/12/28 04:54:49;;;;;;;;;;;;;;;2.94;100.00;101463.28;5055238;28;19917;-76
2023/12/28 04:57:14;;;;;;;;;;;;;;;3.16;100.00;101450.50;5054616;28;19912;-77
2023/12/28 04:59:39;;;;;;;;;;;;;;;3.14;100.00;101452.97;5072862;28;19920;-76
2023/12/28 05:02:05;;;;;;;;;;;;;;;3.40;100.00;101426.84;5072662;28;19935;-76
2023/12/28 05:04:30;;;;;;;;;;;;;;;3.61;100.00;101410.53;5053938;28;19917;-75
2023/12/28 05:06:55;;;;;;;;;;;;;;;3.27;100.00;101444.91;5054561;28;19924;-77
2023/12/28 05:09:21;;;;;;;;;;;;;;;3.10;100.00;101466.25;5054584;28;19916;-79
2023/12/28 05:11:46;;;;;;;;;;;;;;;3.22;100.00;101459.03;5054942;28;20061;-76
2023/12/28 05:14:11;;;;;;;;;;;;;;;3.40;100.00;101438.53;5054478;28;19913;-81
2023/12/28 05:16:37;;;;;;;;;;;;;;;3.46;100.00;101429.50;5053646;28;20003;-75
2023/12/28 05:19:02;;;;;;;;;;;;;;;2.94;100.00;101484.25;5071956;28;20360;-76
2023/12/28 05:21:27;;;;;;;;;;;;;;;3.37;100.00;101439.31;5054398;28;19916;-76
2023/12/28 05:23:53;;;;;;;;;;;;;;;3.16;100.00;101461.41;5054403;28;20014;-75
2023/12/28 05:26:18;;;;;;;;;;;;;;;2.78;100.00;101493.81;5053963;28;20753;-76
2023/12/28 05:28:43;;;;;;;;;;;;;;;2.89;100.00;101480.78;5051662;28;19978;-76
2023/12/28 05:31:08;;;;;;;;;;;;;;;2.91;100.00;101485.84;5053582;28;19998;-77
2023/12/28 05:33:34;;;;;;;;;;;;;;;3.04;100.00;101472.78;5053706;28;19916;-77
2023/12/28 05:35:59;;;;;;;;;;;;;;;3.12;100.00;101476.34;5071777;28;19974;-76
2023/12/28 05:38:24;;;;;;;;;;;;;;;3.37;100.00;101440.97;5053613;28;19924;-76
2023/12/28 05:40:49;;;;;;;;;;;;;;;2.75;100.00;101502.13;5071403;28;19916;-77
2023/12/28 05:43:15;;;;;;;;;;;;;;;3.00;100.00;101469.34;5054602;28;21749;-77
2023/12/28 05:45:40;;;;;;;;;;;;;;;3.19;100.00;101453.94;5071788;28;19923;-77
2023/12/28 05:48:06;;;;;;;;;;;;;;;2.93;100.00;101480.03;5071142;28;19922;-78
2023/12/28 05:50:31;;;;;;;;;;;;;;;3.17;100.00;101459.75;5071719;28;19922;-86
2023/12/28 05:52:56;;;;;;;;;;;;;;;2.85;100.00;101488.19;5052938;28;19916;-78
2023/12/28 05:55:22;;;;;;;;;;;;;;;3.26;100.00;101458.31;5054095;28;20318;-76
2023/12/28 05:57:47;;;;;;;;;;;;;;;3.09;100.00;101486.31;5071169;28;19916;-77
2023/12/28 06:00:13;;;;;;;;;;;;;;;2.48;100.00;101538.97;5071564;28;19927;-78
2023/12/28 06:02:38;;;;;;;;;;;;;;;2.77;100.00;101590.03;5070787;28;19951;-80
2023/12/28 06:05:04;;;;;;;;;;;;;;;2.44;100.00;101620.84;5053967;28;19963;-76
2023/12/28 06:07:29;;;;;;;;;;;;;;;2.41;100.00;101623.28;5053485;28;19916;-76
2023/12/28 06:09:54;;;;;;;;;;;;;;;2.62;100.00;101630.59;5070654;28;19916;-76
2023/12/28 06:12:20;;;;;;;;;;;;;;;2.69;100.00;101640.03;5053892;28;19916;-76
2023/12/28 06:14:45;;;;;;;;;;;;;;;2.58;100.00;101652.25;5053385;28;20314;-80
2023/12/28 06:17:10;;;;;;;;;;;;;;;2.52;100.00;101664.59;5053597;28;19959;-77
2023/12/28 06:19:36;;;;;;;;;;;;;;;2.86;100.00;101640.53;5053140;28;19920;-77
2023/12/28 06:22:01;;;;;;;;;;;;;;;2.78;100.00;101652.84;5053449;28;19916;-77
2023/12/28 06:24:26;;;;;;;;;;;;;;;2.95;100.00;101650.84;5053213;28;20445;-77
2023/12/28 06:26:51;;;;;;;;;;;;;;;3.07;100.00;101648.72;5053345;28;19916;-78
2023/12/28 06:29:17;;;;;;;;;;;;;;;3.95;100.00;101574.00;5070595;28;19916;-77
2023/12/28 06:31:42;;;;;;;;;;;;;;;5.80;100.00;101446.69;5070756;28;19955;-77
2023/12/28 06:34:07;;;;;;;;;;;;;;;8.02;100.00;101329.25;5070128;28;19939;-78
2023/12/28 06:36:33;;;;;;;;;;;;;;;8.42;100.00;101390.22;5053167;28;19955;-77
2023/12/28 06:38:58;;;;;;;;;;;;;;;8.34;100.00;101441.72;5052751;28;20003;-78
2023/12/28 06:41:24;;;;;;;;;;;;;;;8.65;100.00;101353.13;5070578;28;20391;-85
2023/12/28 06:43:49;;;;;;;;;;;;;;;9.64;100.00;101244.78;5052728;28;19988;-77
2023/12/28 06:46:15;;;;;;;;;;;;;;;8.88;100.00;101306.66;5070515;28;19924;-77
2023/12/28 06:48:45;;;;;;;;;;;;;;;9.49;100.00;101267.66;5052872;28;20322;-76
2023/12/28 06:51:18;;;;;;;;;;;;;;;10.63;100.00;101171.34;5052788;28;19917;-77
2023/12/28 06:53:43;;;;;;;;;;;;;;;9.54;100.00;101231.28;5051944;28;19921;-77
2023/12/28 06:56:09;;;;;;;;;;;;;;;9.31;100.00;101265.19;5052981;28;19969;-78
2023/12/28 06:58:34;;;;;;;;;;;;;;;10.72;100.00;101294.19;5052702;28;19938;-77
2023/12/28 07:01:02;;;;;;;;;;;;;;;10.85;100.00;101297.47;5075622;28;19917;-79
2023/12/28 07:03:30;;;;;;;;;;;;;;;11.76;100.00;101224.44;5052979;28;19916;-77
2023/12/28 07:05:55;;;;;;;;;;;;;;;10.56;100.00;101085.81;5052173;28;19916;-81
2023/12/28 07:08:20;;;;;;;;;;;;;;;9.46;100.00;100892.91;5069678;28;20011;-77
2023/12/28 07:10:46;;;;;;;;;;;;;;;6.68;100.00;100822.16;5070215;28;19916;-78
2023/12/28 07:13:11;;;;;;;;;;;;;;;6.32;100.00;100789.25;5069940;28;19916;-77
2023/12/28 07:15:36;;;;;;;;;;;;;;;6.45;100.00;100777.50;5069690;28;20353;-77
2023/12/28 07:18:02;;;;;;;;;;;;;;;5.76;100.00;100776.44;5069592;28;19916;-77
2023/12/28 07:20:27;;;;;;;;;;;;;;;6.65;100.00;100748.06;5069676;28;19943;-77
2023/12/28 07:22:52;;;;;;;;;;;;;;;6.65;100.00;100741.34;5069226;28;19965;-77
2023/12/28 07:25:17;;;;;;;;;;;;;;;6.50;100.00;100736.25;5069617;28;19924;-77
2023/12/28 07:27:43;;;;;;;;;;;;;;;6.19;100.00;100734.53;5049888;28;20015;-77
2023/12/28 07:30:08;;;;;;;;;;;;;;;6.27;100.00;100727.81;5068710;28;19951;-78
2023/12/28 07:32:34;;;;;;;;;;;;;;;6.63;100.00;100722.81;5052144;28;19963;-77
2023/12/28 07:35:00;;;;;;;;;;;;;;;6.42;100.00;100737.13;5052220;28;19999;-76
2023/12/28 07:37:25;;;;;;;;;;;;;;;6.67;100.00;100728.69;5070191;28;19917;-78
2023/12/28 07:39:50;;;;;;;;;;;;;;;6.36;100.00;100734.59;5052129;28;19916;-78
2023/12/28 07:42:16;;;;;;;;;;;;;;;6.74;100.00;100737.94;5070182;28;19928;-77
2023/12/28 07:44:41;;;;;;;;;;;;;;;6.84;100.00;100735.44;5051633;28;20017;-78
2023/12/28 07:47:07;;;;;;;;;;;;;;;7.06;100.00;100730.34;5070334;28;20385;-77
2023/12/28 07:49:34;;;;;;;;;;;;;;;7.20;100.00;100721.03;5070270;28;19931;-76
2023/12/28 07:51:59;;;;;;;;;;;;;;;7.37;100.00;100721.84;5073300;28;19923;-76
2023/12/28 07:54:24;;;;;;;;;;;;;;;6.90;100.00;100739.63;5076642;28;19917;-76
2023/12/28 07:56:50;;;;;;;;;;;;;;;6.86;100.00;100748.06;5075980;28;20015;-77
2023/12/28 07:59:15;;;;;;;;;;;;;;;7.07;100.00;100759.84;5076121;28;19927;-78
2023/12/28 08:01:40;;;;;;;;;;;;;;;7.14;100.00;100756.44;5058282;28;20006;-77
2023/12/28 08:04:06;;;;;;;;;;;;;;;7.27;100.00;100763.19;5058242;28;20371;-78
2023/12/28 08:06:32;;;;;;;;;;;;;;;7.32;100.00;100777.50;5075204;28;19922;-78
2023/12/28 08:08:59;;;;;;;;;;;;;;;7.08;100.00;100797.75;5076223;28;19927;-80
2023/12/28 08:11:24;;;;;;;;;;;;;;;7.15;100.00;100806.19;5076194;28;19938;-78
2023/12/28 08:13:49;;;;;;;;;;;;;;;7.25;100.00;100823.03;5057950;28;20375;-76
2023/12/28 08:16:15;;;;;;;;;;;;;;;7.22;100.00;100845.78;5057678;28;19964;-77
2023/12/28 08:18:40;;;;;;;;;;;;;;;7.56;100.00;100849.97;5058741;28;20479;-78
2023/12/28 08:21:05;;;;;;;;;;;;;;;7.70;100.00;100863.44;5057789;28;19920;-80
2023/12/28 08:23:31;;;;;;;;;;;;;;;7.79;100.00;100868.47;5075853;28;19999;-77
2023/12/28 08:25:56;;;;;;;;;;;;;;;8.02;100.00;100876.84;5075663;28;19917;-77
2023/12/28 08:28:22;;;;;;;;;;;;;;;7.93;100.00;100881.06;5075449;28;19916;-80
2023/12/28 08:30:47;;;;;;;;;;;;;;;7.75;100.00;100887.03;5076205;28;19916;-76
2023/12/28 08:33:13;;;;;;;;;;;;;;;7.60;100.00;100898.03;5057903;28;20007;-77
2023/12/28 08:35:38;;;;;;;;;;;;;;;7.87;100.00;100908.09;5075793;28;19923;-82
2023/12/28 08:38:05;;;;;;;;;;;;;;;8.27;100.00;100913.94;5075788;28;19942;-77
2023/12/28 08:40:31;;;;;;;;;;;;;;;8.21;100.00;100908.84;5058410;28;19922;-77
2023/12/28 08:42:56;;;;;;;;;;;;;;;8.29;100.00;100907.16;5075610;28;19912;-77
2023/12/28 08:45:21;;;;;;;;;;;;;;;7.92;100.00;100920.75;5057880;28;19920;-77
2023/12/28 08:47:47;;;;;;;;;;;;;;;7.81;100.00;100922.44;5057621;28;19920;-76
2023/12/28 08:50:12;;;;;;;;;;;;;;;8.13;100.00;100915.63;5075470;28;20318;-76
2023/12/28 08:52:37;;;;;;;;;;;;;;;8.21;100.00;100918.13;5075669;28;19912;-77
2023/12/28 08:55:03;;;;;;;;;;;;;;;8.50;100.00;100913.81;5075746;28;20007;-76
2023/12/28 08:57:28;;;;;;;;;;;;;;;8.61;100.00;100907.03;5057718;28;19912;-78
2023/12/28 08:59:53;;;;;;;;;;;;;;;8.27;100.00;100918.16;5057129;28;20389;-77
2023/12/28 09:02:20;;;;;;;;;;;;;;;8.25;100.00;100920.69;5056819;28;20018;-77
2023/12/28 09:04:45;;;;;;;;;;;;;;;8.48;100.00;100907.91;5053560;28;19980;-80
2023/12/28 09:07:11;;;;;;;;;;;;;;;8.44;100.00;100904.56;5054688;28;19916;-78
2023/12/28 09:09:36;;;;;;;;;;;;;;;8.46;100.00;100895.25;5054393;28;20310;-77
2023/12/28 09:12:01;;;;;;;;;;;;;;;8.61;100.00;100887.59;5054453;28;20010;-78
2023/12/28 09:14:27;;;;;;;;;;;;;;;8.44;100.00;100886.81;5054105;28;19917;-82
2023/12/28 09:16:52;;;;;;;;;;;;;;;8.46;100.00;100869.91;5054315;28;20048;-81
2023/12/28 09:19:17;;;;;;;;;;;;;;;8.53;100.00;100853.84;5071916;28;20055;-76
2023/12/28 09:21:42;;;;;;;;;;;;;;;8.58;100.00;100848.72;5054001;28;19917;-83
2023/12/28 09:24:08;;;;;;;;;;;;;;;8.85;100.00;100835.06;5054209;28;19923;-76
2023/12/28 09:26:33;;;;;;;;;;;;;;;8.73;100.00;100805.56;5053564;28;19959;-77
2023/12/28 09:28:59;;;;;;;;;;;;;;;8.92;100.00;100776.69;5071793;28;20356;-81
2023/12/28 09:31:24;;;;;;;;;;;;;;;8.96;100.00;100759.72;5054033;28;19983;-77
2023/12/28 09:33:49;;;;;;;;;;;;;;;9.16;100.00;100737.56;5053864;28;19924;-78
2023/12/28 09:36:16;;;;;;;;;;;;;;;9.14;100.00;100703.75;5053743;28;19955;-76
2023/12/28 09:38:42;;;;;;;;;;;;;;;9.04;100.00;100686.97;5054431;28;19999;-78
2023/12/28 09:41:17;;;;;;;;;;;;;;;9.20;100.00;100658.88;5071991;28;19991;-79
2023/12/28 09:43:53;;;;;;;;;;;;;;;9.39;100.00;100631.56;5051421;28;19928;-78
2023/12/28 09:46:19;;;;;;;;;;;;;;;9.50;100.00;100619.59;5051136;28;19916;-77
2023/12/28 09:48:45;;;;;;;;;;;;;;;9.40;100.00;100607.91;5053895;28;19927;-77
2023/12/28 09:51:10;;;;;;;;;;;;;;;9.44;100.00;100581.63;5053815;28;19979;-77
2023/12/28 09:53:35;;;;;;;;;;;;;;;9.61;100.00;100544.13;5053487;28;20375;-77
2023/12/28 09:56:02;;;;;;;;;;;;;;;9.60;100.00;100507.78;5053379;28;19967;-77
2023/12/28 09:58:29;;;;;;;;;;;;;;;9.60;100.00;100479.03;5052026;28;19991;-77
2023/12/28 10:00:54;;;;;;;;;;;;;;;9.76;100.00;100441.53;5070880;28;19920;-77
2023/12/28 10:03:20;;;;;;;;;;;;;;;9.87;100.00;100407.47;5071492;28;19926;-76
2023/12/28 10:05:46;;;;;;;;;;;;;;;10.01;100.00;100382.63;5053152;28;19923;-77
2023/12/28 10:08:13;;;;;;;;;;;;;;;9.86;100.00;100367.72;5052012;28;19974;-77
2023/12/28 10:10:38;;;;;;;;;;;;;;;9.89;100.00;100341.41;5053526;28;20405;-78
2023/12/28 10:13:03;;;;;;;;;;;;;;;9.95;100.00;100329.44;5052454;28;19921;-85
2023/12/28 10:15:30;;;;;;;;;;;;;;;10.01;100.00;100316.59;5051979;28;20376;-78
2023/12/28 10:17:56;;;;;;;;;;;;;;;10.19;100.00;100282.38;5053681;28;19916;-77
2023/12/28 10:20:21;;;;;;;;;;;;;;;10.16;100.00;100285.81;5053406;28;20054;-77
2023/12/28 10:22:47;;;;;;;;;;;;;;;10.14;100.00;100287.56;5053583;28;19966;-77
2023/12/28 10:25:13;;;;;;;;;;;;;;;10.30;100.00;100283.00;5050390;28;19916;-77
2023/12/28 10:27:42;;;;;;;;;;;;;;;10.36;100.00;100267.59;5070697;28;19916;-83
2023/12/28 10:30:08;;;;;;;;;;;;;;;10.54;100.00;100254.47;5053209;28;19921;-77
2023/12/28 10:32:34;;;;;;;;;;;;;;;10.56;100.00;100254.47;5052629;28;19928;-78
2023/12/28 10:34:59;;;;;;;;;;;;;;;10.59;100.00;100256.91;5051102;28;19923;-76
2023/12/28 10:37:26;;;;;;;;;;;;;;;10.77;100.00;100253.94;5052854;28;20286;-76
2023/12/28 10:39:53;;;;;;;;;;;;;;;10.89;100.00;100284.16;5070974;28;19935;-77
2023/12/28 10:42:37;;;;;;;;;;;;;;;11.12;100.00;100317.50;5070737;28;19920;-78
2023/12/28 10:45:05;;;;;;;;;;;;;;;10.93;100.00;100443.47;5053376;28;20383;-78
2023/12/28 10:47:36;;;;;;;;;;;;;;;10.88;100.00;100522.41;5052473;28;19923;-78
2023/12/28 10:50:04;;;;;;;;;;;;;;;11.19;100.00;100523.44;5053412;28;20003;-82
2023/12/28 10:52:30;;;;;;;;;;;;;;;11.17;100.00;100540.44;5051051;28;19916;-78
2023/12/28 10:55:03;;;;;;;;;;;;;;;11.01;100.00;100558.63;5052496;28;19924;-85
2023/12/28 10:57:40;;;;;;;;;;;;;;;11.17;100.00;100532.81;5052714;28;19939;-78
2023/12/28 11:00:07;;;;;;;;;;;;;;;11.23;100.00;100542.03;5051185;28;19923;-77
2023/12/28 11:02:37;;;;;;;;;;;;;;;11.30;100.00;100546.97;5052848;28;19971;-78
2023/12/28 11:05:04;;;;;;;;;;;;;;;11.32;100.00;100544.38;5051947;28;20026;-86
2023/12/28 11:07:32;;;;;;;;;;;;;;;11.37;100.00;100544.28;5052104;28;19923;-77
2023/12/28 11:10:00;;;;;;;;;;;;;;;11.58;100.00;100534.44;5052527;28;19916;-76
2023/12/28 11:12:26;;;;;;;;;;;;;;;11.82;100.00;100530.53;5051754;28;19922;-78
2023/12/28 11:14:52;;;;;;;;;;;;;;;11.69;100.00;100527.41;5069880;28;19916;-76
2023/12/28 11:17:19;;;;;;;;;;;;;;;11.78;100.00;100521.28;5070616;28;20352;-80
2023/12/28 11:19:44;;;;;;;;;;;;;;;12.09;100.00;100495.00;5050022;28;19920;-76
2023/12/28 11:22:10;;;;;;;;;;;;;;;12.13;100.00;100513.59;5052730;28;19974;-77
2023/12/28 11:24:36;;;;;;;;;;;;;;;12.00;100.00;100540.25;5052148;28;20019;-76
2023/12/28 11:27:01;;;;;;;;;;;;;;;12.11;100.00;100572.25;5069302;28;19916;-77
2023/12/28 11:29:29;;;;;;;;;;;;;;;12.09;100.00;100570.59;5052504;28;19973;-79
2023/12/28 11:31:54;;;;;;;;;;;;;;;12.28;100.00;100565.91;5069764;28;19931;-77
2023/12/28 11:34:27;;;;;;;;;;;;;;;12.12;100.00;100561.16;5052149;28;19917;-78
2023/12/28 11:36:57;;;;;;;;;;;;;;;12.27;100.00;100548.91;5070079;28;19916;-75
2023/12/28 11:39:35;;;;;;;;;;;;;;;12.59;100.00;100533.59;5069021;28;19916;-76
2023/12/28 11:42:03;;;;;;;;;;;;;;;12.52;100.00;100534.66;5051296;28;19966;-76
2023/12/28 11:44:29;;;;;;;;;;;;;;;12.56;100.00;100524.31;5050416;28;20022;-76
2023/12/28 11:46:56;;;;;;;;;;;;;;;12.35;100.00;100527.44;5051591;28;20105;-76
2023/12/28 11:49:25;;;;;;;;;;;;;;;12.46;100.00;100514.44;5035247;28;19920;-77
2023/12/28 11:51:54;;;;;;;;;;;;;;;12.74;100.00;100495.75;5052103;28;20003;-78
2023/12/28 11:54:19;;;;;;;;;;;;;;;12.64;100.00;100501.97;5069381;28;19912;-76
2023/12/28 11:56:50;;;;;;;;;;;;;;;12.62;100.00;100505.44;5069496;28;19917;-75
2023/12/28 11:59:15;;;;;;;;;;;;;;;12.62;100.00;100520.75;5069548;28;20003;-75
2023/12/28 12:01:41;;;;;;;;;;;;;;;12.83;100.00;100507.41;5069251;28;19999;-75
2023/12/28 12:04:07;;;;;;;;;;;;;;;12.67;100.00;100495.97;5052077;28;19955;-78
2023/12/28 12:06:32;;;;;;;;;;;;;;;12.75;100.00;100473.63;5050823;28;19917;-78
2023/12/28 12:08:58;;;;;;;;;;;;;;;12.83;100.00;100456.38;5051254;28;19916;-77
2023/12/28 12:11:25;;;;;;;;;;;;;;;12.87;100.00;100440.94;5051964;28;19952;-84
2023/12/28 12:13:51;;;;;;;;;;;;;;;12.95;100.00;100441.53;5051943;28;19916;-77
2023/12/28 12:16:16;;;;;;;;;;;;;;;13.07;100.00;100427.59;5069446;28;19920;-80
2023/12/28 12:18:42;;;;;;;;;;;;;;;13.07;100.00;100418.22;5050821;28;19917;-78
2023/12/28 12:21:09;;;;;;;;;;;;;;;13.09;100.00;100407.97;5069049;28;19916;-80
2023/12/28 12:23:35;;;;;;;;;;;;;;;13.03;100.00;100405.59;5051010;28;19955;-77
2023/12/28 12:26:00;;;;;;;;;;;;;;;13.30;100.00;100389.41;5051177;28;19956;-78
2023/12/28 12:28:27;;;;;;;;;;;;;;;13.27;100.00;100379.28;5049742;28;19920;-76